Time;durP1;ratioP1;P1;durP2;ratioP2;P2;SDS_P1;SDS_P2;PMS_P1;PMS_P2;Temp;Humidity;BMP_temperature;BMP_pressure;BME280_temperature;BME280_humidity;BME280_pressure;Samples;Min_cycle;Max_cycle;Signal;HPM_P1;HPM_P2
2021/01/28 00:01:10;;;;;;;1.40;1.20;;;-8.70;99.90;;;;;;5004936;28;20684;-69
2021/01/28 00:03:36;;;;;;;2.97;1.60;;;-8.80;99.90;;;;;;5004728;28;20234;-69
2021/01/28 00:06:02;;;;;;;2.00;1.30;;;-8.90;99.90;;;;;;4998838;28;20685;-69
2021/01/28 00:08:28;;;;;;;3.40;1.67;;;-8.90;99.90;;;;;;5000684;28;20784;-68
2021/01/28 00:10:54;;;;;;;2.23;1.50;;;-8.90;99.90;;;;;;5001963;28;20199;-69
2021/01/28 00:13:20;;;;;;;7.13;1.20;;;-8.90;99.90;;;;;;5003069;28;20616;-69
2021/01/28 00:15:45;;;;;;;2.00;1.30;;;-9.00;99.90;;;;;;4982630;28;20196;-68
2021/01/28 00:18:13;;;;;;;3.50;1.20;;;-8.90;99.90;;;;;;4999047;28;20505;-69
2021/01/28 00:20:42;;;;;;;3.30;1.40;;;-8.90;99.90;;;;;;4998670;28;20318;-69
2021/01/28 00:23:08;;;;;;;3.33;1.63;;;-9.00;99.90;;;;;;4984730;28;20727;-69
2021/01/28 00:25:35;;;;;;;4.47;1.50;;;-9.00;99.90;;;;;;5001355;28;20250;-69
2021/01/28 00:28:02;;;;;;;1.80;1.30;;;-9.00;99.90;;;;;;5000671;28;20210;-69
2021/01/28 00:30:31;;;;;;;3.17;1.33;;;-9.00;99.90;;;;;;4983542;28;20210;-69
2021/01/28 00:32:57;;;;;;;5.13;1.60;;;-9.00;99.90;;;;;;4999507;28;20756;-69
2021/01/28 00:35:43;;;;;;;2.13;1.10;;;-9.00;99.90;;;;;;5000715;28;20700;-69
2021/01/28 00:38:13;;;;;;;2.17;1.43;;;-9.00;99.90;;;;;;5000418;28;20226;-69
2021/01/28 00:40:39;;;;;;;2.10;1.40;;;-8.90;99.90;;;;;;5002174;28;20215;-70
2021/01/28 00:43:04;;;;;;;3.10;1.40;;;-8.80;99.90;;;;;;5001814;28;20195;-69
2021/01/28 00:45:32;;;;;;;1.30;1.20;;;-8.70;99.90;;;;;;5002809;28;20245;-69
2021/01/28 00:47:58;;;;;;;2.20;1.40;;;-8.70;99.90;;;;;;4999782;28;20203;-69
2021/01/28 00:50:27;;;;;;;3.30;1.50;;;-8.60;99.90;;;;;;5001055;28;20199;-70
2021/01/28 00:52:52;;;;;;;4.90;1.30;;;-8.70;99.90;;;;;;5001862;28;20202;-69
2021/01/28 00:55:19;;;;;;;1.43;1.30;;;-8.60;99.90;;;;;;5002769;28;20210;-69
2021/01/28 00:57:45;;;;;;;2.50;1.33;;;-8.60;99.90;;;;;;4999007;28;20195;-69
2021/01/28 01:00:26;;;;;;;1.87;1.30;;;-8.60;99.90;;;;;;5001853;28;20207;-69
2021/01/28 01:02:52;;;;;;;2.87;1.23;;;-8.50;99.90;;;;;;4998630;28;20231;-69
2021/01/28 01:05:20;;;;;;;3.47;1.63;;;-8.50;99.90;;;;;;4999369;28;20236;-70
2021/01/28 01:07:46;;;;;;;1.30;1.20;;;-8.50;99.90;;;;;;4999501;28;20256;-69
2021/01/28 01:10:21;;;;;;;3.60;1.60;;;-8.50;99.90;;;;;;5000201;28;20241;-69
2021/01/28 01:12:47;;;;;;;3.80;1.30;;;-8.40;99.90;;;;;;4998967;28;21036;-69
2021/01/28 01:15:13;;;;;;;3.57;1.30;;;-8.30;99.90;;;;;;4996889;28;20213;-69
2021/01/28 01:17:39;;;;;;;2.40;1.40;;;-8.30;99.90;;;;;;4977501;28;20305;-69
2021/01/28 01:20:05;;;;;;;2.03;1.50;;;-8.30;99.90;;;;;;5002129;28;20202;-69
2021/01/28 01:22:31;;;;;;;3.83;1.37;;;-8.30;99.90;;;;;;4999133;28;20222;-69
2021/01/28 01:24:56;;;;;;;4.07;1.50;;;-8.20;99.90;;;;;;4996835;28;20192;-70
2021/01/28 01:27:22;;;;;;;2.70;1.33;;;-8.10;99.90;;;;;;5000690;28;20207;-70
2021/01/28 01:29:48;;;;;;;2.47;1.60;;;-8.10;99.90;;;;;;4997952;28;20203;-69
2021/01/28 01:32:14;;;;;;;4.97;1.40;;;-8.00;99.90;;;;;;4999451;28;20214;-69
2021/01/28 01:34:39;;;;;;;3.70;1.70;;;-7.90;99.90;;;;;;4998284;28;20254;-70
2021/01/28 01:37:05;;;;;;;1.40;1.30;;;-7.80;99.90;;;;;;4998287;28;20238;-69
2021/01/28 01:39:31;;;;;;;2.70;1.40;;;-7.80;99.90;;;;;;5000143;28;20202;-69
2021/01/28 01:41:56;;;;;;;5.43;1.67;;;-7.80;99.90;;;;;;4998567;28;20199;-69
2021/01/28 01:44:22;;;;;;;3.77;1.30;;;-7.70;99.90;;;;;;4996176;28;20202;-69
2021/01/28 01:47:01;;;;;;;2.10;1.17;;;-7.70;99.90;;;;;;4998478;28;20283;-69
2021/01/28 01:49:27;;;;;;;1.33;1.20;;;-7.70;99.90;;;;;;4998953;28;20743;-69
2021/01/28 01:51:55;;;;;;;4.00;1.40;;;-7.70;99.90;;;;;;5002380;28;20207;-69
2021/01/28 01:54:23;;;;;;;7.40;1.20;;;-7.60;99.90;;;;;;4998089;28;20274;-70
2021/01/28 01:56:54;;;;;;;1.60;1.17;;;-7.60;99.90;;;;;;4997236;28;20203;-68
2021/01/28 01:59:27;;;;;;;2.63;1.37;;;-7.60;99.90;;;;;;4996518;28;20246;-69
2021/01/28 02:02:09;;;;;;;3.97;1.20;;;-7.60;99.90;;;;;;5007853;23;20628;-78
2021/01/28 02:04:35;;;;;;;4.40;1.30;;;-7.60;99.90;;;;;;4994948;28;20290;-78
2021/01/28 02:07:14;;;;;;;3.80;1.30;;;-7.70;99.90;;;;;;4995105;28;20222;-80
2021/01/28 02:09:41;;;;;;;7.77;1.53;;;-7.60;99.90;;;;;;4984876;28;20230;-79
2021/01/28 02:12:07;;;;;;;4.17;1.30;;;-7.60;99.90;;;;;;4976639;28;20188;-80
2021/01/28 02:14:33;;;;;;;2.43;1.30;;;-7.70;99.90;;;;;;4979127;28;20239;-78
2021/01/28 02:17:04;;;;;;;9.83;1.30;;;-7.60;99.90;;;;;;4979196;28;20241;-79
2021/01/28 02:19:51;;;;;;;1.53;1.20;;;-7.60;99.90;;;;;;4983774;28;20615;-79
2021/01/28 02:22:36;;;;;;;6.50;1.20;;;-7.50;99.90;;;;;;4985167;28;20199;-79
2021/01/28 02:25:24;;;;;;;5.00;1.40;;;-7.60;99.90;;;;;;4977597;28;20199;-78
2021/01/28 02:27:51;;;;;;;4.90;1.40;;;-7.50;99.90;;;;;;4992788;28;20237;-80
2021/01/28 02:30:23;;;;;;;1.30;1.10;;;-7.60;99.90;;;;;;4991271;28;20203;-79
2021/01/28 02:32:50;;;;;;;5.60;1.23;;;-7.70;99.90;;;;;;4994258;28;20200;-79
2021/01/28 02:35:18;;;;;;;1.90;1.33;;;-7.70;99.90;;;;;;4997048;28;20196;-79
2021/01/28 02:37:46;;;;;;;2.03;1.37;;;-7.80;99.90;;;;;;4979227;28;20203;-79
2021/01/28 02:40:13;;;;;;;1.83;1.20;;;-7.80;99.90;;;;;;4990648;28;20230;-78
2021/01/28 02:42:39;;;;;;;1.77;1.20;;;-7.90;99.90;;;;;;4991767;28;20267;-79
2021/01/28 02:45:06;;;;;;;3.73;1.70;;;-7.90;99.90;;;;;;4978764;28;20570;-79
2021/01/28 02:47:32;;;;;;;2.33;1.50;;;-7.90;99.90;;;;;;4975943;28;20691;-78
2021/01/28 02:49:57;;;;;;;3.77;1.20;;;-8.00;99.90;;;;;;4997200;28;20210;-78
2021/01/28 02:52:23;;;;;;;1.30;1.20;;;-8.00;99.90;;;;;;4982983;28;20570;-79
2021/01/28 02:54:51;;;;;;;8.33;2.20;;;-8.00;99.90;;;;;;4981176;28;20245;-79
2021/01/28 02:57:17;;;;;;;3.03;1.43;;;-8.00;99.90;;;;;;4976784;28;20211;-78
2021/01/28 02:59:43;;;;;;;1.97;1.37;;;-8.00;99.90;;;;;;4998116;28;20195;-78
2021/01/28 03:02:12;;;;;;;3.00;1.20;;;-7.90;99.90;;;;;;4978380;28;20207;-78
2021/01/28 03:04:38;;;;;;;2.87;1.40;;;-7.80;99.90;;;;;;4975843;28;20584;-79
2021/01/28 03:07:06;;;;;;;4.23;1.20;;;-7.80;99.90;;;;;;4991818;28;20191;-78
2021/01/28 03:09:32;;;;;;;3.07;1.30;;;-7.90;99.90;;;;;;5000830;28;20719;-79
2021/01/28 03:11:58;;;;;;;3.10;1.30;;;-7.80;99.90;;;;;;4977014;28;20199;-79
2021/01/28 03:14:24;;;;;;;2.43;1.30;;;-7.80;99.90;;;;;;4985174;28;20684;-80
2021/01/28 03:16:50;;;;;;;6.63;1.20;;;-7.80;99.90;;;;;;4979484;28;20219;-79
2021/01/28 03:19:18;;;;;;;1.50;1.23;;;-7.80;99.90;;;;;;4977214;28;20195;-79
2021/01/28 03:21:44;;;;;;;1.87;1.30;;;-7.90;99.90;;;;;;4995142;28;20203;-79
2021/01/28 03:24:10;;;;;;;3.27;1.33;;;-7.90;99.90;;;;;;4977590;28;20198;-79
2021/01/28 03:26:39;;;;;;;1.30;1.10;;;-7.90;99.90;;;;;;4979749;28;20795;-78
2021/01/28 03:29:06;;;;;;;2.80;1.27;;;-8.00;99.90;;;;;;4994121;28;20206;-80
2021/01/28 03:31:32;;;;;;;2.63;1.33;;;-7.90;99.90;;;;;;4997989;28;20211;-80
2021/01/28 03:33:58;;;;;;;3.53;1.60;;;-7.90;99.90;;;;;;4976560;28;20218;-80
2021/01/28 03:36:24;;;;;;;5.40;1.07;;;-7.80;99.90;;;;;;4994825;28;20207;-80
2021/01/28 03:38:49;;;;;;;4.40;1.40;;;-7.90;99.90;;;;;;4995639;28;20199;-80
2021/01/28 03:41:15;;;;;;;3.67;1.27;;;-7.90;99.90;;;;;;4995263;28;20186;-80
2021/01/28 03:43:41;;;;;;;3.53;1.30;;;-7.90;99.90;;;;;;4994714;28;20222;-78
2021/01/28 03:46:06;;;;;;;5.80;1.40;;;-8.00;99.90;;;;;;4983536;28;20194;-78
2021/01/28 03:48:32;;;;;;;2.97;1.37;;;-8.00;99.90;;;;;;4977941;28;20610;-81
2021/01/28 03:50:58;;;;;;;2.03;1.40;;;-8.00;99.90;;;;;;4977448;28;20232;-78
2021/01/28 03:53:23;;;;;;;4.20;1.47;;;-8.00;99.90;;;;;;4977907;28;20206;-82
2021/01/28 03:55:50;;;;;;;2.80;1.50;;;-8.00;99.90;;;;;;4980729;28;20205;-78
2021/01/28 03:58:15;;;;;;;2.30;1.50;;;-8.10;99.90;;;;;;4999828;28;20206;-78
2021/01/28 04:00:41;;;;;;;2.80;1.33;;;-8.10;99.90;;;;;;4999476;28;20227;-78
2021/01/28 04:03:07;;;;;;;1.30;1.20;;;-8.10;99.90;;;;;;4997441;28;20231;-81
2021/01/28 04:05:33;;;;;;;5.13;1.40;;;-8.10;99.90;;;;;;4993464;28;20203;-81
2021/01/28 04:07:58;;;;;;;1.83;1.30;;;-8.10;99.90;;;;;;4996301;28;20558;-78
2021/01/28 04:10:36;;;;;;;8.23;1.30;;;-8.20;99.90;;;;;;4995483;28;20196;-78
2021/01/28 04:13:02;;;;;;;2.60;1.47;;;-8.20;99.90;;;;;;4983627;28;20237;-80
2021/01/28 04:15:28;;;;;;;2.47;1.30;;;-8.30;99.90;;;;;;4984298;28;20230;-78
2021/01/28 04:17:54;;;;;;;2.77;1.30;;;-8.30;99.90;;;;;;4997796;28;20594;-81
2021/01/28 04:20:24;;;;;;;5.13;1.17;;;-8.40;99.90;;;;;;5000517;28;20234;-80
2021/01/28 04:22:50;;;;;;;1.40;1.10;;;-8.30;99.90;;;;;;4999434;28;20225;-78
2021/01/28 04:25:17;;;;;;;1.87;1.13;;;-8.40;99.90;;;;;;4977881;28;20207;-78
2021/01/28 04:27:43;;;;;;;5.70;1.30;;;-8.40;99.90;;;;;;4980571;28;20672;-81
2021/01/28 04:30:15;;;;;;;3.80;1.50;;;-8.30;99.90;;;;;;4998741;28;20198;-79
2021/01/28 04:32:40;;;;;;;8.50;1.50;;;-8.30;99.90;;;;;;4988445;28;20234;-79
2021/01/28 04:35:07;;;;;;;1.40;1.00;;;-8.20;99.90;;;;;;4987136;28;20226;-78
2021/01/28 04:37:33;;;;;;;3.57;1.40;;;-8.20;99.90;;;;;;4985895;28;20693;-78
2021/01/28 04:39:59;;;;;;;1.20;1.10;;;-8.20;99.90;;;;;;4997567;28;20286;-79
2021/01/28 04:42:43;;;;;;;3.37;1.20;;;-8.20;99.90;;;;;;5002173;28;20314;-80
2021/01/28 04:45:11;;;;;;;3.63;1.50;;;-8.20;99.90;;;;;;4998467;28;20191;-79
2021/01/28 04:47:50;;;;;;;2.17;1.23;;;-8.30;99.90;;;;;;4995969;28;20206;-79
2021/01/28 04:50:37;;;;;;;2.17;1.30;;;-8.30;99.90;;;;;;4986414;28;20194;-79
2021/01/28 04:53:08;;;;;;;1.43;1.30;;;-8.40;99.90;;;;;;4979460;28;21000;-79
2021/01/28 04:55:39;;;;;;;1.37;1.20;;;-8.30;99.90;;;;;;4988933;28;20207;-79
2021/01/28 04:58:06;;;;;;;2.60;1.40;;;-8.40;99.90;;;;;;5000383;28;20848;-79
2021/01/28 05:00:32;;;;;;;3.37;1.50;;;-8.50;99.90;;;;;;4986621;28;20205;-78
2021/01/28 05:03:10;;;;;;;2.57;1.37;;;-8.60;99.90;;;;;;4985440;28;20936;-79
2021/01/28 05:05:36;;;;;;;5.03;1.37;;;-8.60;99.90;;;;;;4984077;28;20203;-79
2021/01/28 05:08:02;;;;;;;2.50;1.17;;;-8.50;99.90;;;;;;5004142;28;20286;-79
2021/01/28 05:10:28;;;;;;;10.70;1.30;;;-8.60;99.90;;;;;;4987132;28;20713;-79
2021/01/28 05:12:59;;;;;;;3.77;1.37;;;-8.60;99.90;;;;;;4988360;28;20217;-79
2021/01/28 05:15:33;;;;;;;4.50;1.23;;;-8.60;99.90;;;;;;5007244;28;20937;-79
2021/01/28 05:18:01;;;;;;;2.57;1.23;;;-8.70;99.90;;;;;;5001694;28;20212;-78
2021/01/28 05:20:29;;;;;;;2.80;1.40;;;-8.80;99.90;;;;;;5006298;28;20206;-77
2021/01/28 05:23:02;;;;;;;2.00;1.33;;;-8.90;99.90;;;;;;4979794;28;20253;-77
2021/01/28 05:25:29;;;;;;;1.20;1.13;;;-8.90;99.90;;;;;;4996825;28;20242;-79
2021/01/28 05:27:55;;;;;;;1.53;1.30;;;-8.90;99.90;;;;;;4996174;28;20714;-79
2021/01/28 05:30:41;;;;;;;2.00;1.27;;;-9.00;99.90;;;;;;4995577;28;20224;-77
2021/01/28 05:33:28;;;;;;;3.20;1.57;;;-8.90;99.90;;;;;;4979199;28;20203;-78
2021/01/28 05:36:24;;;;;;;2.37;1.30;;;-8.80;99.90;;;;;;4975761;28;20234;-78
2021/01/28 05:38:53;;;;;;;3.67;1.30;;;-8.80;99.90;;;;;;4983736;28;20577;-80
2021/01/28 05:41:42;;;;;;;2.63;1.23;;;-8.80;99.90;;;;;;4983602;28;20678;-79
2021/01/28 05:44:14;;;;;;;3.23;1.73;;;-8.80;99.90;;;;;;4993558;28;20713;-80
2021/01/28 05:46:39;;;;;;;1.90;1.27;;;-8.70;99.90;;;;;;4978696;28;20202;-78
2021/01/28 05:49:17;;;;;;;4.53;1.60;;;-8.60;99.90;;;;;;4998117;28;20333;-79
2021/01/28 05:51:44;;;;;;;3.20;1.37;;;-8.60;99.90;;;;;;4985597;28;20198;-79
2021/01/28 05:54:30;;;;;;;7.63;1.50;;;-8.70;99.90;;;;;;5003637;28;20211;-78
2021/01/28 05:57:22;;;;;;;4.30;1.30;;;-8.70;99.90;;;;;;4977318;28;20613;-79
2021/01/28 06:00:07;;;;;;;3.07;1.50;;;-8.60;99.90;;;;;;4970700;28;21019;-79
2021/01/28 06:02:51;;;;;;;3.43;1.37;;;-8.60;99.90;;;;;;4980587;28;20341;-78
2021/01/28 06:05:25;;;;;;;5.87;1.43;;;-8.60;99.90;;;;;;4998164;28;20195;-77
2021/01/28 06:08:14;;;;;;;3.30;1.67;;;-8.60;99.90;;;;;;4971097;28;20664;-82
2021/01/28 06:11:24;;;;;;;10.00;1.53;;;-8.60;99.90;;;;;;4973300;28;20199;-77
2021/01/28 06:14:03;;;;;;;3.30;1.50;;;-8.50;99.90;;;;;;4954582;28;20245;-78
2021/01/28 06:16:54;;;;;;;5.27;1.60;;;-8.40;99.90;;;;;;4983431;28;20232;-78
2021/01/28 06:19:43;;;;;;;5.93;1.50;;;-8.30;99.90;;;;;;4980542;28;20201;-79
2021/01/28 06:22:29;;;;;;;7.57;2.00;;;-8.20;99.90;;;;;;4996004;28;20665;-79
2021/01/28 06:25:50;;;;;;;4.47;2.03;;;-8.30;99.90;;;;;;4981337;28;20195;-80
2021/01/28 06:29:22;;;;;;;4.10;1.40;;;-8.30;99.90;;;;;;4900693;29;20273;-76
2021/01/28 06:31:50;;;;;;;3.63;1.70;;;-8.20;99.90;;;;;;4921421;28;20200;-77
2021/01/28 06:34:37;;;;;;;2.83;1.47;;;-8.30;99.90;;;;;;4928651;29;20264;-77
2021/01/28 06:37:09;;;;;;;3.60;1.40;;;-8.30;99.90;;;;;;4981248;28;20222;-78
2021/01/28 06:40:02;;;;;;;3.60;1.70;;;-8.40;99.90;;;;;;4977293;28;20228;-77
2021/01/28 06:42:32;;;;;;;2.87;1.70;;;-8.50;99.90;;;;;;4970238;28;20669;-79
2021/01/28 06:45:03;;;;;;;3.47;1.43;;;-8.70;99.90;;;;;;4976419;28;20200;-78
2021/01/28 06:47:50;;;;;;;8.77;1.90;;;-8.70;99.90;;;;;;4983682;28;20693;-77
2021/01/28 06:50:38;;;;;;;4.90;1.63;;;-8.70;99.90;;;;;;4979172;28;20843;-77
2021/01/28 06:53:15;;;;;;;6.03;1.80;;;-8.80;99.90;;;;;;4977249;28;20266;-77
2021/01/28 06:56:01;;;;;;;3.97;2.23;;;-8.80;99.90;;;;;;5000021;28;20537;-76
2021/01/28 06:58:59;;;;;;;70.43;21.30;;;-8.70;99.90;;;;;;4995517;28;20221;-76
2021/01/28 07:01:29;;;;;;;13.80;6.10;;;-8.60;99.90;;;;;;4979249;28;20218;-76
2021/01/28 07:04:18;;;;;;;33.10;15.37;;;-8.40;99.90;;;;;;4984063;28;20607;-77
2021/01/28 07:06:56;;;;;;;11.57;5.13;;;-8.30;99.90;;;;;;4975183;28;20199;-77
2021/01/28 07:09:47;;;;;;;8.33;3.77;;;-8.10;99.90;;;;;;4978829;28;20294;-77
2021/01/28 07:12:22;;;;;;;10.23;2.97;;;-8.10;99.90;;;;;;4996576;28;20676;-78
2021/01/28 07:14:50;;;;;;;8.10;3.87;;;-8.10;99.90;;;;;;4976692;28;20788;-80
2021/01/28 07:17:22;;;;;;;13.27;5.03;;;-8.00;99.90;;;;;;4976750;28;20305;-79
2021/01/28 07:20:00;;;;;;;12.43;5.70;;;-8.10;99.90;;;;;;4979263;28;20205;-79
2021/01/28 07:22:34;;;;;;;5.77;2.30;;;-8.20;99.90;;;;;;4978346;28;20249;-80
2021/01/28 07:25:28;;;;;;;8.03;2.93;;;-8.30;99.90;;;;;;4973949;28;20194;-79
2021/01/28 07:28:03;;;;;;;6.03;3.50;;;-8.30;99.90;;;;;;4995966;28;20264;-80
2021/01/28 07:30:46;;;;;;;4.70;2.03;;;-8.30;99.90;;;;;;4980175;28;20564;-81
2021/01/28 07:33:24;;;;;;;21.10;9.77;;;-8.40;99.90;;;;;;4988820;28;20199;-80
2021/01/28 07:35:51;;;;;;;24.23;11.93;;;-8.40;99.90;;;;;;4975537;28;20650;-79
2021/01/28 07:38:29;;;;;;;15.07;5.53;;;-8.30;99.90;;;;;;4982946;28;20211;-80
2021/01/28 07:41:25;;;;;;;17.60;1.40;;;-8.20;99.90;;;;;;4979225;28;20772;-80
2021/01/28 07:43:55;;;;;;;5.47;2.40;;;-8.30;99.90;;;;;;4974411;28;20693;-79
2021/01/28 07:46:26;;;;;;;11.30;2.17;;;-8.20;99.90;;;;;;4983221;28;20264;-79
2021/01/28 07:49:10;;;;;;;4.53;1.63;;;-8.30;99.90;;;;;;4998168;28;20198;-81
2021/01/28 07:51:40;;;;;;;2.13;1.53;;;-8.40;99.90;;;;;;4977286;28;20203;-78
2021/01/28 07:54:26;;;;;;;6.37;2.40;;;-8.40;99.90;;;;;;4996200;28;20684;-79
2021/01/28 07:57:02;;;;;;;5.57;2.53;;;-8.40;99.90;;;;;;4997818;28;20210;-78
2021/01/28 07:59:48;;;;;;;5.20;2.47;;;-8.50;99.90;;;;;;4990173;28;20274;-81
2021/01/28 08:02:30;;;;;;;3.40;1.60;;;-8.50;99.90;;;;;;4979635;28;20224;-82
2021/01/28 08:05:04;;;;;;;7.80;1.50;;;-8.50;99.90;;;;;;4981619;28;20194;-76
2021/01/28 08:07:31;;;;;;;7.83;2.60;;;-8.40;99.90;;;;;;4980992;28;20297;-78
2021/01/28 08:10:01;;;;;;;15.50;2.50;;;-8.40;99.90;;;;;;4985803;28;20281;-81
2021/01/28 08:12:37;;;;;;;2.83;1.63;;;-8.40;99.90;;;;;;4974778;28;20200;-78
2021/01/28 08:15:15;;;;;;;3.60;1.70;;;-8.50;99.90;;;;;;4998383;28;20209;-79
2021/01/28 08:17:41;;;;;;;5.30;1.30;;;-8.60;99.90;;;;;;4983351;28;20616;-79
2021/01/28 08:20:16;;;;;;;2.27;1.27;;;-8.60;99.90;;;;;;4981232;28;20539;-79
2021/01/28 08:22:56;;;;;;;8.83;1.30;;;-8.60;99.90;;;;;;4979990;28;20900;-78
2021/01/28 08:25:24;;;;;;;2.37;1.60;;;-8.60;99.90;;;;;;4975465;28;20206;-78
2021/01/28 08:27:50;;;;;;;3.90;1.50;;;-8.50;99.90;;;;;;5005753;28;20284;-80
2021/01/28 08:30:25;;;;;;;19.33;1.90;;;-8.50;99.90;;;;;;4985302;28;20266;-80
2021/01/28 08:32:59;;;;;;;6.37;1.73;;;-8.30;99.90;;;;;;5006755;28;20307;-79
2021/01/28 08:35:36;;;;;;;11.53;2.10;;;-8.30;99.90;;;;;;4983402;28;20543;-77
2021/01/28 08:38:05;;;;;;;3.73;1.90;;;-8.30;99.90;;;;;;4979786;28;20265;-78
2021/01/28 08:40:32;;;;;;;2.07;1.50;;;-8.30;99.90;;;;;;4996043;28;20207;-79
2021/01/28 08:43:13;;;;;;;3.93;1.37;;;-8.20;99.90;;;;;;4983072;28;20194;-79
2021/01/28 08:45:39;;;;;;;3.10;1.50;;;-8.30;99.90;;;;;;4981975;28;20234;-78
2021/01/28 08:48:10;;;;;;;2.33;1.60;;;-8.40;99.90;;;;;;4980966;28;20266;-78
2021/01/28 08:50:36;;;;;;;1.77;1.50;;;-8.40;99.90;;;;;;4984741;28;20195;-77
2021/01/28 08:53:22;;;;;;;7.70;2.20;;;-8.20;99.90;;;;;;4984979;28;20198;-77
2021/01/28 08:55:49;;;;;;;6.33;2.07;;;-8.10;99.90;;;;;;4976524;28;20203;-79
2021/01/28 08:58:30;;;;;;;9.87;1.43;;;-8.00;99.90;;;;;;4981968;28;20269;-79
2021/01/28 09:01:01;;;;;;;2.77;1.50;;;-7.90;99.90;;;;;;4981952;28;20227;-78
2021/01/28 09:03:41;;;;;;;6.73;1.63;;;-7.90;99.90;;;;;;4983086;28;20692;-79
2021/01/28 09:06:07;;;;;;;3.60;1.50;;;-7.90;99.90;;;;;;4998400;28;20715;-80
2021/01/28 09:08:34;;;;;;;11.87;2.03;;;-7.90;99.90;;;;;;5000691;28;20234;-80
2021/01/28 09:11:13;;;;;;;7.00;1.43;;;-7.90;99.90;;;;;;4983759;28;20202;-80
2021/01/28 09:13:40;;;;;;;6.37;2.20;;;-7.80;99.90;;;;;;4998349;28;20206;-78
2021/01/28 09:16:13;;;;;;;5.50;1.60;;;-7.70;99.90;;;;;;4983171;28;20676;-80
2021/01/28 09:18:50;;;;;;;5.37;1.53;;;-7.60;99.90;;;;;;4982570;28;20214;-79
2021/01/28 09:21:20;;;;;;;6.00;3.07;;;-7.50;99.90;;;;;;4979285;28;20191;-77
2021/01/28 09:24:30;;;;;;;7.73;2.43;;;-7.50;99.90;;;;;;4980916;28;20597;-77
2021/01/28 09:27:30;;;;;;;1.80;1.40;;;-7.40;99.90;;;;;;4980245;28;20664;-78
2021/01/28 09:30:15;;;;;;;5.43;2.03;;;-7.40;99.90;;;;;;4953101;28;20209;-76
2021/01/28 09:32:40;;;;;;;7.00;2.80;;;-7.30;99.90;;;;;;4996573;28;20229;-79
2021/01/28 09:35:13;;;;;;;8.13;3.30;;;-7.20;99.90;;;;;;4979921;28;20682;-78
2021/01/28 09:37:41;;;;;;;9.43;3.70;;;-7.20;99.90;;;;;;4988943;28;20222;-78
2021/01/28 09:40:24;;;;;;;3.63;2.47;;;-7.00;99.90;;;;;;4984116;28;20195;-78
2021/01/28 09:42:50;;;;;;;5.40;2.13;;;-6.70;99.90;;;;;;4985261;28;20269;-76
2021/01/28 09:45:25;;;;;;;77.63;29.43;;;-6.50;99.90;;;;;;4992525;28;20192;-76
2021/01/28 09:47:53;;;;;;;11.70;6.30;;;-6.30;99.90;;;;;;4998814;28;20225;-81
2021/01/28 09:50:19;;;;;;;3.93;2.30;;;-6.00;99.90;;;;;;4982976;28;20194;-80
2021/01/28 09:52:47;;;;;;;6.43;3.13;;;-5.90;99.90;;;;;;5003158;28;20206;-80
2021/01/28 09:55:20;;;;;;;13.50;2.20;;;-5.70;99.90;;;;;;4999604;28;20996;-79
2021/01/28 09:57:45;;;;;;;5.00;1.90;;;-5.50;99.90;;;;;;4994501;28;20195;-81
2021/01/28 10:00:17;;;;;;;3.30;1.60;;;-5.50;99.90;;;;;;4982684;28;20640;-78
2021/01/28 10:02:59;;;;;;;9.80;2.67;;;-5.40;99.90;;;;;;4980446;28;20273;-78
2021/01/28 10:05:28;;;;;;;4.37;1.70;;;-5.40;99.90;;;;;;4994484;28;20195;-78
2021/01/28 10:07:54;;;;;;;4.73;1.50;;;-5.40;99.90;;;;;;5002688;28;20696;-78
2021/01/28 10:10:22;;;;;;;11.60;2.93;;;-5.50;99.90;;;;;;4980837;28;20199;-78
2021/01/28 10:12:50;;;;;;;4.27;2.50;;;-5.40;99.90;;;;;;4998353;28;20626;-80
2021/01/28 10:15:16;;;;;;;5.03;1.52;;;-5.30;99.90;;;;;;4982637;28;21125;-77
2021/01/28 10:17:44;;;;;;;6.37;2.00;;;-5.20;99.90;;;;;;4984894;28;20551;-81
2021/01/28 10:20:11;;;;;;;5.47;2.13;;;-5.20;99.90;;;;;;4985015;28;20699;-81
2021/01/28 10:22:38;;;;;;;6.10;1.20;;;-5.20;99.90;;;;;;4987405;28;20199;-78
2021/01/28 10:25:07;;;;;;;4.45;2.72;;;-5.20;99.90;;;;;;4980938;28;20660;-77
2021/01/28 10:27:33;;;;;;;10.40;3.47;;;-5.20;99.90;;;;;;4975755;28;20207;-78
2021/01/28 10:29:59;;;;;;;6.93;1.87;;;-5.10;99.90;;;;;;4977383;28;20195;-77
2021/01/28 10:32:25;;;;;;;10.38;1.55;;;-5.00;99.90;;;;;;4983289;28;20581;-77
2021/01/28 10:34:50;;;;;;;7.23;2.37;;;-4.80;99.90;;;;;;4982371;28;20314;-76
2021/01/28 10:37:17;;;;;;;4.47;2.10;;;-4.70;99.90;;;;;;4998096;28;20237;-80
2021/01/28 10:39:44;;;;;;;60.90;25.98;;;-4.70;99.90;;;;;;4984984;28;20237;-77
2021/01/28 10:42:19;;;;;;;8.88;3.20;;;-4.70;99.90;;;;;;4983228;28;20199;-80
2021/01/28 10:44:45;;;;;;;6.50;2.88;;;-4.60;99.90;;;;;;4976698;28;20344;-78
2021/01/28 10:47:10;;;;;;;12.60;1.60;;;-4.70;99.90;;;;;;4981171;28;20501;-77
2021/01/28 10:49:36;;;;;;;7.47;2.90;;;-4.50;99.90;;;;;;4973274;28;20290;-80
2021/01/28 10:52:02;;;;;;;10.60;3.38;;;-4.40;99.90;;;;;;4977662;28;20550;-80
2021/01/28 10:54:28;;;;;;;12.70;3.80;;;-4.30;99.90;;;;;;4977575;28;20318;-79
2021/01/28 10:56:53;;;;;;;5.28;2.55;;;-4.30;99.90;;;;;;4978592;28;20693;-80
2021/01/28 10:59:19;;;;;;;5.93;1.60;;;-4.40;99.90;;;;;;4976668;28;20222;-79
2021/01/28 11:01:45;;;;;;;5.28;1.55;;;-4.50;99.90;;;;;;4976304;28;20649;-80
2021/01/28 11:04:11;;;;;;;2.60;1.40;;;-4.40;99.90;;;;;;4982141;28;20198;-79
2021/01/28 11:06:37;;;;;;;5.05;1.63;;;-4.40;99.90;;;;;;4982265;28;20290;-78
2021/01/28 11:09:03;;;;;;;8.13;2.55;;;-4.30;99.90;;;;;;4983522;28;20198;-79
2021/01/28 11:11:28;;;;;;;5.30;2.10;;;-4.30;99.90;;;;;;4997175;28;20773;-78
2021/01/28 11:13:55;;;;;;;8.68;2.90;;;-4.20;99.90;;;;;;4992905;28;20366;-78
2021/01/28 11:16:24;;;;;;;21.55;4.70;;;-4.10;99.90;;;;;;4995884;28;20198;-78
2021/01/28 11:18:53;;;;;;;6.68;2.42;;;-4.30;99.90;;;;;;4973882;28;20215;-79
2021/01/28 11:21:21;;;;;;;12.55;3.10;;;-4.20;99.90;;;;;;5001108;28;20203;-77
2021/01/28 11:23:47;;;;;;;9.77;3.20;;;-4.20;99.90;;;;;;4980819;28;20281;-78
2021/01/28 11:26:14;;;;;;;4.60;1.88;;;-4.30;99.90;;;;;;4976320;28;20329;-77
2021/01/28 11:28:40;;;;;;;6.68;1.90;;;-4.40;99.90;;;;;;4978437;28;20264;-78
2021/01/28 11:31:06;;;;;;;5.78;2.00;;;-4.40;99.90;;;;;;4998120;28;20250;-78
2021/01/28 11:33:33;;;;;;;6.10;2.28;;;-4.30;99.90;;;;;;5000858;28;20209;-78
2021/01/28 11:35:59;;;;;;;18.83;3.05;;;-4.20;99.90;;;;;;5000288;28;20203;-79
2021/01/28 11:38:25;;;;;;;8.10;2.45;;;-4.20;99.90;;;;;;4976759;28;20211;-78
2021/01/28 11:40:51;;;;;;;4.78;2.05;;;-4.10;99.90;;;;;;5001311;28;20252;-77
2021/01/28 11:43:17;;;;;;;6.68;2.05;;;-3.90;99.90;;;;;;4992058;28;20198;-78
2021/01/28 11:45:43;;;;;;;4.20;1.70;;;-3.80;99.90;;;;;;4982962;28;20515;-78
2021/01/28 11:48:08;;;;;;;8.68;1.90;;;-3.60;99.90;;;;;;4984648;28;20199;-79
2021/01/28 11:50:35;;;;;;;4.30;1.85;;;-3.70;99.90;;;;;;4986390;28;20210;-78
2021/01/28 11:53:02;;;;;;;6.82;1.60;;;-3.90;99.90;;;;;;4994995;28;20193;-79
2021/01/28 11:55:28;;;;;;;3.78;1.58;;;-4.00;99.90;;;;;;4989705;28;20194;-76
2021/01/28 11:57:55;;;;;;;13.07;1.67;;;-4.20;99.90;;;;;;4990765;28;20207;-77
2021/01/28 12:00:23;;;;;;;2.88;1.77;;;-4.30;99.90;;;;;;4991078;28;20860;-77
2021/01/28 12:02:49;;;;;;;2.60;1.30;;;-4.50;99.90;;;;;;4992233;28;20222;-77
2021/01/28 12:05:17;;;;;;;9.93;1.40;;;-4.50;99.90;;;;;;4985918;28;20192;-77
2021/01/28 12:07:43;;;;;;;14.60;1.60;;;-4.50;99.90;;;;;;4990769;28;20191;-77
2021/01/28 12:10:11;;;;;;;6.10;1.50;;;-4.40;99.90;;;;;;4994811;28;20209;-78
2021/01/28 12:12:37;;;;;;;7.05;1.38;;;-4.40;99.90;;;;;;4992492;28;20208;-76
2021/01/28 12:15:05;;;;;;;6.18;1.20;;;-4.30;99.90;;;;;;4993363;28;20234;-76
2021/01/28 12:17:31;;;;;;;6.28;1.40;;;-4.20;99.90;;;;;;4982950;28;20211;-76
2021/01/28 12:19:56;;;;;;;2.67;1.30;;;-4.20;99.90;;;;;;4983835;28;20728;-76
2021/01/28 12:22:22;;;;;;;2.93;1.47;;;-4.20;99.90;;;;;;5005304;28;20654;-76
2021/01/28 12:24:48;;;;;;;7.47;1.75;;;-4.40;99.90;;;;;;4989208;28;20206;-77
2021/01/28 12:27:15;;;;;;;9.63;1.50;;;-4.40;99.90;;;;;;4992769;28;20202;-80
2021/01/28 12:29:42;;;;;;;2.47;1.48;;;-4.50;99.90;;;;;;4988162;28;20293;-77
2021/01/28 12:32:08;;;;;;;2.17;1.40;;;-3.80;99.90;;;;;;4989756;28;20198;-79
2021/01/28 12:34:35;;;;;;;3.05;1.38;;;-3.70;99.90;;;;;;4994194;28;20194;-81
2021/01/28 12:37:02;;;;;;;7.03;1.60;;;-3.60;99.90;;;;;;4995217;28;20253;-80
2021/01/28 12:39:28;;;;;;;3.28;1.30;;;-3.30;99.90;;;;;;4984702;28;20188;-80
2021/01/28 12:41:54;;;;;;;2.65;1.45;;;-3.70;99.90;;;;;;4987081;28;20278;-80
2021/01/28 12:44:20;;;;;;;2.30;1.63;;;-4.10;99.90;;;;;;4987631;28;20728;-80
2021/01/28 12:46:46;;;;;;;2.70;1.40;;;-4.40;99.90;;;;;;4990430;28;20195;-80
2021/01/28 12:49:11;;;;;;;3.50;1.40;;;-4.70;99.90;;;;;;4994396;28;20680;-80
2021/01/28 12:51:37;;;;;;;5.63;1.60;;;-4.80;99.90;;;;;;4994669;28;20202;-81
2021/01/28 12:54:03;;;;;;;4.10;1.60;;;-4.90;99.90;;;;;;5012156;28;20544;-81
2021/01/28 12:56:28;;;;;;;2.40;1.40;;;-5.00;99.90;;;;;;5011857;28;20206;-81
2021/01/28 12:58:54;;;;;;;5.95;1.50;;;-5.10;99.90;;;;;;4989731;28;20218;-80
2021/01/28 13:01:20;;;;;;;2.50;1.50;;;-5.10;99.90;;;;;;4987690;28;20199;-78
2021/01/28 13:03:46;;;;;;;9.60;1.80;;;-5.10;99.90;;;;;;5007189;28;20218;-82
2021/01/28 13:06:13;;;;;;;2.50;1.50;;;-5.10;99.90;;;;;;4994231;28;20198;-79